sensor_id;sensor_type;location;lat;lon;timestamp;temperature;humidity
20422;DHT22;10370;53.102;18.034;2024-03-29T00:02:25;9.10;99.90
20422;DHT22;10370;53.102;18.034;2024-03-29T00:07:46;8.90;99.90
20422;DHT22;10370;53.102;18.034;2024-03-29T00:13:08;8.90;99.90
20422;DHT22;10370;53.102;18.034;2024-03-29T00:18:29;8.80;99.90
20422;DHT22;10370;53.102;18.034;2024-03-29T00:23:51;8.80;99.90
20422;DHT22;10370;53.102;18.034;2024-03-29T00:29:12;8.60;99.90
20422;DHT22;10370;53.102;18.034;2024-03-29T00:34:35;8.60;99.90
20422;DHT22;10370;53.102;18.034;2024-03-29T00:39:59;8.60;99.90
20422;DHT22;10370;53.102;18.034;2024-03-29T00:45:21;8.50;99.90
20422;DHT22;10370;53.102;18.034;2024-03-29T00:50:42;8.50;99.90
20422;DHT22;10370;53.102;18.034;2024-03-29T00:56:07;8.40;99.90
20422;DHT22;10370;53.102;18.034;2024-03-29T01:01:28;8.30;99.90
20422;DHT22;10370;53.102;18.034;2024-03-29T01:06:50;8.30;99.90
20422;DHT22;10370;53.102;18.034;2024-03-29T01:12:11;8.30;99.90
20422;DHT22;10370;53.102;18.034;2024-03-29T01:17:33;8.20;99.90
20422;DHT22;10370;53.102;18.034;2024-03-29T01:22:55;8.00;99.90
20422;DHT22;10370;53.102;18.034;2024-03-29T01:28:16;7.90;99.90
20422;DHT22;10370;53.102;18.034;2024-03-29T01:33:38;7.80;99.90
20422;DHT22;10370;53.102;18.034;2024-03-29T01:39:02;7.70;99.90
20422;DHT22;10370;53.102;18.034;2024-03-29T01:44:24;7.50;99.90
20422;DHT22;10370;53.102;18.034;2024-03-29T01:49:45;7.40;99.90
20422;DHT22;10370;53.102;18.034;2024-03-29T01:55:07;7.40;99.90
20422;DHT22;10370;53.102;18.034;2024-03-29T02:00:30;7.30;99.90
20422;DHT22;10370;53.102;18.034;2024-03-29T02:05:53;7.10;99.90
20422;DHT22;10370;53.102;18.034;2024-03-29T02:11:14;7.20;99.90
20422;DHT22;10370;53.102;18.034;2024-03-29T02:16:36;7.30;99.90
20422;DHT22;10370;53.102;18.034;2024-03-29T02:22:00;7.10;99.90
20422;DHT22;10370;53.102;18.034;2024-03-29T02:27:22;7.10;99.90
20422;DHT22;10370;53.102;18.034;2024-03-29T02:32:44;7.00;99.90
20422;DHT22;10370;53.102;18.034;2024-03-29T02:38:05;7.10;99.90
20422;DHT22;10370;53.102;18.034;2024-03-29T02:43:27;7.10;99.90
20422;DHT22;10370;53.102;18.034;2024-03-29T02:48:49;7.10;99.90
20422;DHT22;10370;53.102;18.034;2024-03-29T02:54:10;7.20;99.90
20422;DHT22;10370;53.102;18.034;2024-03-29T02:59:32;7.10;99.90
20422;DHT22;10370;53.102;18.034;2024-03-29T03:04:54;7.20;99.90
20422;DHT22;10370;53.102;18.034;2024-03-29T03:10:15;7.30;99.90
20422;DHT22;10370;53.102;18.034;2024-03-29T03:15:55;7.40;99.90
20422;DHT22;10370;53.102;18.034;2024-03-29T03:21:17;7.30;99.90
20422;DHT22;10370;53.102;18.034;2024-03-29T03:26:39;7.20;99.90
20422;DHT22;10370;53.102;18.034;2024-03-29T03:32:00;7.00;99.90
20422;DHT22;10370;53.102;18.034;2024-03-29T03:37:22;6.90;99.90
20422;DHT22;10370;53.102;18.034;2024-03-29T03:42:43;6.90;99.90
20422;DHT22;10370;53.102;18.034;2024-03-29T03:48:06;6.80;99.90
20422;DHT22;10370;53.102;18.034;2024-03-29T03:53:28;6.70;99.90
20422;DHT22;10370;53.102;18.034;2024-03-29T03:58:50;6.50;99.90
20422;DHT22;10370;53.102;18.034;2024-03-29T04:04:11;6.40;99.90
20422;DHT22;10370;53.102;18.034;2024-03-29T04:09:33;6.20;99.90
20422;DHT22;10370;53.102;18.034;2024-03-29T04:14:54;6.20;99.90
20422;DHT22;10370;53.102;18.034;2024-03-29T04:20:16;6.30;99.90
20422;DHT22;10370;53.102;18.034;2024-03-29T04:25:38;6.20;99.90
20422;DHT22;10370;53.102;18.034;2024-03-29T04:31:00;6.00;99.90
20422;DHT22;10370;53.102;18.034;2024-03-29T04:36:22;5.80;99.90
20422;DHT22;10370;53.102;18.034;2024-03-29T04:41:43;5.80;99.90
20422;DHT22;10370;53.102;18.034;2024-03-29T04:47:05;5.70;99.90
20422;DHT22;10370;53.102;18.034;2024-03-29T04:52:27;5.90;99.90
20422;DHT22;10370;53.102;18.034;2024-03-29T04:57:51;6.20;99.90
20422;DHT22;10370;53.102;18.034;2024-03-29T05:03:12;7.60;99.90
20422;DHT22;10370;53.102;18.034;2024-03-29T05:08:34;8.60;99.90
20422;DHT22;10370;53.102;18.034;2024-03-29T05:13:55;9.90;99.90
20422;DHT22;10370;53.102;18.034;2024-03-29T05:19:21;12.60;99.90
20422;DHT22;10370;53.102;18.034;2024-03-29T05:24:43;12.60;99.90
20422;DHT22;10370;53.102;18.034;2024-03-29T05:30:04;13.30;99.90
20422;DHT22;10370;53.102;18.034;2024-03-29T05:35:26;13.70;99.90
20422;DHT22;10370;53.102;18.034;2024-03-29T05:40:48;11.40;99.90
20422;DHT22;10370;53.102;18.034;2024-03-29T05:46:10;9.90;99.90
20422;DHT22;10370;53.102;18.034;2024-03-29T05:51:32;9.50;99.90
20422;DHT22;10370;53.102;18.034;2024-03-29T05:56:55;9.20;99.90
20422;DHT22;10370;53.102;18.034;2024-03-29T06:02:17;9.10;99.90
20422;DHT22;10370;53.102;18.034;2024-03-29T06:07:39;9.10;99.90
20422;DHT22;10370;53.102;18.034;2024-03-29T06:13:01;9.10;99.90
20422;DHT22;10370;53.102;18.034;2024-03-29T06:18:29;9.00;99.90
20422;DHT22;10370;53.102;18.034;2024-03-29T06:23:50;8.90;99.90
20422;DHT22;10370;53.102;18.034;2024-03-29T06:29:12;8.90;99.90
20422;DHT22;10370;53.102;18.034;2024-03-29T06:34:34;9.00;99.90
20422;DHT22;10370;53.102;18.034;2024-03-29T06:39:55;9.00;99.90
20422;DHT22;10370;53.102;18.034;2024-03-29T06:45:17;9.20;99.90
20422;DHT22;10370;53.102;18.034;2024-03-29T06:50:39;9.40;99.90
20422;DHT22;10370;53.102;18.034;2024-03-29T06:56:01;9.50;99.90
20422;DHT22;10370;53.102;18.034;2024-03-29T07:01:24;9.60;99.90
20422;DHT22;10370;53.102;18.034;2024-03-29T07:06:48;9.70;99.90
20422;DHT22;10370;53.102;18.034;2024-03-29T07:12:12;10.00;99.90
20422;DHT22;10370;53.102;18.034;2024-03-29T07:17:34;10.20;99.90
20422;DHT22;10370;53.102;18.034;2024-03-29T07:22:55;10.30;99.90
20422;DHT22;10370;53.102;18.034;2024-03-29T07:28:17;10.40;99.90
20422;DHT22;10370;53.102;18.034;2024-03-29T07:33:43;10.50;99.90
20422;DHT22;10370;53.102;18.034;2024-03-29T07:39:05;10.50;99.90
20422;DHT22;10370;53.102;18.034;2024-03-29T07:44:27;10.60;99.90
20422;DHT22;10370;53.102;18.034;2024-03-29T07:49:49;10.70;99.90
20422;DHT22;10370;53.102;18.034;2024-03-29T07:55:11;10.90;99.90
20422;DHT22;10370;53.102;18.034;2024-03-29T08:00:39;11.00;99.90
20422;DHT22;10370;53.102;18.034;2024-03-29T08:06:04;11.20;99.90
20422;DHT22;10370;53.102;18.034;2024-03-29T08:11:27;11.40;99.90
20422;DHT22;10370;53.102;18.034;2024-03-29T08:16:48;11.40;99.90
20422;DHT22;10370;53.102;18.034;2024-03-29T08:22:10;11.50;99.90
20422;DHT22;10370;53.102;18.034;2024-03-29T08:27:32;11.60;99.90
20422;DHT22;10370;53.102;18.034;2024-03-29T08:33:15;11.80;99.90
20422;DHT22;10370;53.102;18.034;2024-03-29T08:38:37;11.80;99.90
20422;DHT22;10370;53.102;18.034;2024-03-29T08:44:04;11.80;99.90
20422;DHT22;10370;53.102;18.034;2024-03-29T08:49:26;11.80;99.90
20422;DHT22;10370;53.102;18.034;2024-03-29T08:54:50;11.90;99.90
20422;DHT22;10370;53.102;18.034;2024-03-29T09:00:12;12.00;99.90
20422;DHT22;10370;53.102;18.034;2024-03-29T09:05:34;12.00;99.90
20422;DHT22;10370;53.102;18.034;2024-03-29T09:10:56;12.10;99.90
20422;DHT22;10370;53.102;18.034;2024-03-29T09:16:19;12.20;99.90
20422;DHT22;10370;53.102;18.034;2024-03-29T09:21:41;12.40;99.90
20422;DHT22;10370;53.102;18.034;2024-03-29T09:27:03;12.40;99.90
20422;DHT22;10370;53.102;18.034;2024-03-29T09:32:28;12.60;99.90
20422;DHT22;10370;53.102;18.034;2024-03-29T09:37:50;12.70;99.90
20422;DHT22;10370;53.102;18.034;2024-03-29T09:43:14;12.90;99.90
20422;DHT22;10370;53.102;18.034;2024-03-29T09:48:37;12.90;99.90
20422;DHT22;10370;53.102;18.034;2024-03-29T09:54:00;13.10;99.90
20422;DHT22;10370;53.102;18.034;2024-03-29T09:59:22;13.10;99.90
20422;DHT22;10370;53.102;18.034;2024-03-29T10:04:46;13.20;99.90
20422;DHT22;10370;53.102;18.034;2024-03-29T10:10:09;13.30;99.90
20422;DHT22;10370;53.102;18.034;2024-03-29T10:15:32;13.40;99.90
20422;DHT22;10370;53.102;18.034;2024-03-29T10:21:03;13.40;99.90
20422;DHT22;10370;53.102;18.034;2024-03-29T10:26:25;13.60;99.90
20422;DHT22;10370;53.102;18.034;2024-03-29T10:31:47;13.70;99.90
20422;DHT22;10370;53.102;18.034;2024-03-29T10:37:11;13.80;99.90
20422;DHT22;10370;53.102;18.034;2024-03-29T10:42:33;13.90;99.90
20422;DHT22;10370;53.102;18.034;2024-03-29T10:47:56;14.10;99.90
20422;DHT22;10370;53.102;18.034;2024-03-29T10:53:19;14.20;99.90
20422;DHT22;10370;53.102;18.034;2024-03-29T10:58:47;14.30;99.90
20422;DHT22;10370;53.102;18.034;2024-03-29T11:04:18;14.50;99.90
20422;DHT22;10370;53.102;18.034;2024-03-29T11:09:43;14.70;99.90
20422;DHT22;10370;53.102;18.034;2024-03-29T11:15:10;14.90;99.90
20422;DHT22;10370;53.102;18.034;2024-03-29T11:20:36;14.80;99.90
20422;DHT22;10370;53.102;18.034;2024-03-29T11:26:01;14.90;99.90
20422;DHT22;10370;53.102;18.034;2024-03-29T11:31:23;14.90;99.90
20422;DHT22;10370;53.102;18.034;2024-03-29T11:36:46;14.80;99.90
20422;DHT22;10370;53.102;18.034;2024-03-29T11:42:11;14.90;99.90
20422;DHT22;10370;53.102;18.034;2024-03-29T11:47:33;14.70;99.90
20422;DHT22;10370;53.102;18.034;2024-03-29T11:52:56;14.50;99.90
20422;DHT22;10370;53.102;18.034;2024-03-29T11:58:17;14.80;99.90
20422;DHT22;10370;53.102;18.034;2024-03-29T12:03:39;15.00;99.90
20422;DHT22;10370;53.102;18.034;2024-03-29T12:09:01;15.20;99.90
20422;DHT22;10370;53.102;18.034;2024-03-29T12:14:30;15.40;99.90
20422;DHT22;10370;53.102;18.034;2024-03-29T12:19:59;15.80;99.90
20422;DHT22;10370;53.102;18.034;2024-03-29T12:25:32;15.90;99.90
20422;DHT22;10370;53.102;18.034;2024-03-29T12:30:53;16.00;99.90
20422;DHT22;10370;53.102;18.034;2024-03-29T12:36:16;15.90;99.90
20422;DHT22;10370;53.102;18.034;2024-03-29T12:41:40;15.70;99.90
20422;DHT22;10370;53.102;18.034;2024-03-29T12:47:03;15.90;99.90
20422;DHT22;10370;53.102;18.034;2024-03-29T12:52:26;15.80;99.90
20422;DHT22;10370;53.102;18.034;2024-03-29T12:57:48;15.80;99.90
20422;DHT22;10370;53.102;18.034;2024-03-29T13:03:10;15.90;99.90
20422;DHT22;10370;53.102;18.034;2024-03-29T13:08:32;15.90;99.90
20422;DHT22;10370;53.102;18.034;2024-03-29T13:13:53;15.70;99.90
20422;DHT22;10370;53.102;18.034;2024-03-29T13:19:15;15.80;99.90
20422;DHT22;10370;53.102;18.034;2024-03-29T13:24:37;16.00;99.90
20422;DHT22;10370;53.102;18.034;2024-03-29T13:29:59;16.20;99.90
20422;DHT22;10370;53.102;18.034;2024-03-29T13:35:21;16.10;99.90
20422;DHT22;10370;53.102;18.034;2024-03-29T13:40:43;16.00;99.90
20422;DHT22;10370;53.102;18.034;2024-03-29T13:46:05;15.90;99.90
20422;DHT22;10370;53.102;18.034;2024-03-29T13:51:28;15.90;99.50
20422;DHT22;10370;53.102;18.034;2024-03-29T13:56:50;15.80;99.40
20422;DHT22;10370;53.102;18.034;2024-03-29T14:02:12;16.00;99.90
20422;DHT22;10370;53.102;18.034;2024-03-29T14:07:37;16.00;99.90
20422;DHT22;10370;53.102;18.034;2024-03-29T14:12:59;16.00;99.20
20422;DHT22;10370;53.102;18.034;2024-03-29T14:18:23;15.90;99.70
20422;DHT22;10370;53.102;18.034;2024-03-29T14:23:44;16.00;99.40
20422;DHT22;10370;53.102;18.034;2024-03-29T14:29:06;15.90;99.10
20422;DHT22;10370;53.102;18.034;2024-03-29T14:34:28;16.10;99.50
20422;DHT22;10370;53.102;18.034;2024-03-29T14:39:53;16.10;97.00
20422;DHT22;10370;53.102;18.034;2024-03-29T14:45:15;16.10;96.40
20422;DHT22;10370;53.102;18.034;2024-03-29T14:50:37;16.10;97.40
20422;DHT22;10370;53.102;18.034;2024-03-29T14:55:59;16.00;98.70
20422;DHT22;10370;53.102;18.034;2024-03-29T15:01:23;15.80;98.20
20422;DHT22;10370;53.102;18.034;2024-03-29T15:06:45;15.90;99.90
20422;DHT22;10370;53.102;18.034;2024-03-29T15:12:07;16.00;99.90
20422;DHT22;10370;53.102;18.034;2024-03-29T15:17:39;15.90;99.50
20422;DHT22;10370;53.102;18.034;2024-03-29T15:23:02;16.10;99.90
20422;DHT22;10370;53.102;18.034;2024-03-29T15:28:25;15.90;99.90
20422;DHT22;10370;53.102;18.034;2024-03-29T15:34:07;15.70;99.90
20422;DHT22;10370;53.102;18.034;2024-03-29T15:39:28;15.70;99.90
20422;DHT22;10370;53.102;18.034;2024-03-29T15:44:50;15.70;99.30
20422;DHT22;10370;53.102;18.034;2024-03-29T15:50:15;15.60;99.30
20422;DHT22;10370;53.102;18.034;2024-03-29T15:55:37;15.50;99.50
20422;DHT22;10370;53.102;18.034;2024-03-29T16:00:58;15.40;99.30
20422;DHT22;10370;53.102;18.034;2024-03-29T16:06:20;15.30;99.90
20422;DHT22;10370;53.102;18.034;2024-03-29T16:11:42;15.20;99.90
20422;DHT22;10370;53.102;18.034;2024-03-29T16:17:03;15.10;99.70
20422;DHT22;10370;53.102;18.034;2024-03-29T16:22:25;15.00;99.90
20422;DHT22;10370;53.102;18.034;2024-03-29T16:27:47;14.80;99.90
20422;DHT22;10370;53.102;18.034;2024-03-29T16:33:08;14.70;99.90
20422;DHT22;10370;53.102;18.034;2024-03-29T16:38:30;14.60;99.90
20422;DHT22;10370;53.102;18.034;2024-03-29T16:43:52;14.60;99.90
20422;DHT22;10370;53.102;18.034;2024-03-29T16:49:13;14.50;99.90
20422;DHT22;10370;53.102;18.034;2024-03-29T16:54:35;14.50;99.90
20422;DHT22;10370;53.102;18.034;2024-03-29T16:59:56;14.40;99.90
20422;DHT22;10370;53.102;18.034;2024-03-29T17:05:18;14.40;99.90
20422;DHT22;10370;53.102;18.034;2024-03-29T17:10:39;14.40;99.90
20422;DHT22;10370;53.102;18.034;2024-03-29T17:16:01;14.40;99.90
20422;DHT22;10370;53.102;18.034;2024-03-29T17:21:23;14.30;99.90
20422;DHT22;10370;53.102;18.034;2024-03-29T17:26:45;14.30;99.90
20422;DHT22;10370;53.102;18.034;2024-03-29T17:32:07;14.20;99.90
20422;DHT22;10370;53.102;18.034;2024-03-29T17:37:28;14.20;99.90
20422;DHT22;10370;53.102;18.034;2024-03-29T17:42:50;14.20;99.90
20422;DHT22;10370;53.102;18.034;2024-03-29T17:48:11;14.10;99.90
20422;DHT22;10370;53.102;18.034;2024-03-29T17:53:33;14.10;99.90
20422;DHT22;10370;53.102;18.034;2024-03-29T17:58:54;14.00;99.90
20422;DHT22;10370;53.102;18.034;2024-03-29T18:04:16;13.90;99.90
20422;DHT22;10370;53.102;18.034;2024-03-29T18:09:37;13.80;99.90
20422;DHT22;10370;53.102;18.034;2024-03-29T18:14:59;13.70;99.90
20422;DHT22;10370;53.102;18.034;2024-03-29T18:20:20;13.70;99.90
20422;DHT22;10370;53.102;18.034;2024-03-29T18:25:42;13.60;99.90
20422;DHT22;10370;53.102;18.034;2024-03-29T18:31:04;13.50;99.90
20422;DHT22;10370;53.102;18.034;2024-03-29T18:36:30;13.40;99.90
20422;DHT22;10370;53.102;18.034;2024-03-29T18:41:52;13.30;99.90
20422;DHT22;10370;53.102;18.034;2024-03-29T18:47:15;13.20;99.90
20422;DHT22;10370;53.102;18.034;2024-03-29T18:52:37;13.10;99.90
20422;DHT22;10370;53.102;18.034;2024-03-29T18:57:58;13.00;99.90
20422;DHT22;10370;53.102;18.034;2024-03-29T19:03:21;12.90;99.90
20422;DHT22;10370;53.102;18.034;2024-03-29T19:08:43;12.80;99.90
20422;DHT22;10370;53.102;18.034;2024-03-29T19:14:04;12.70;99.90
20422;DHT22;10370;53.102;18.034;2024-03-29T19:19:26;12.70;99.90
20422;DHT22;10370;53.102;18.034;2024-03-29T19:24:48;12.70;99.90
20422;DHT22;10370;53.102;18.034;2024-03-29T19:30:13;12.70;99.90
20422;DHT22;10370;53.102;18.034;2024-03-29T19:35:35;12.70;99.90
20422;DHT22;10370;53.102;18.034;2024-03-29T19:40:57;12.70;99.90
20422;DHT22;10370;53.102;18.034;2024-03-29T19:46:22;12.60;99.90
20422;DHT22;10370;53.102;18.034;2024-03-29T19:51:45;12.60;99.90
20422;DHT22;10370;53.102;18.034;2024-03-29T19:57:07;12.60;99.90
20422;DHT22;10370;53.102;18.034;2024-03-29T20:02:28;12.60;99.90
20422;DHT22;10370;53.102;18.034;2024-03-29T20:07:51;12.60;99.90
20422;DHT22;10370;53.102;18.034;2024-03-29T20:13:12;12.70;99.90
20422;DHT22;10370;53.102;18.034;2024-03-29T20:18:37;12.70;99.90
20422;DHT22;10370;53.102;18.034;2024-03-29T20:23:59;12.70;99.90
20422;DHT22;10370;53.102;18.034;2024-03-29T20:29:23;12.50;99.90
20422;DHT22;10370;53.102;18.034;2024-03-29T20:34:46;12.40;99.90
20422;DHT22;10370;53.102;18.034;2024-03-29T20:40:09;12.60;99.90
20422;DHT22;10370;53.102;18.034;2024-03-29T20:45:31;12.70;99.90
20422;DHT22;10370;53.102;18.034;2024-03-29T20:50:59;12.80;99.90
20422;DHT22;10370;53.102;18.034;2024-03-29T20:56:21;12.90;99.90
20422;DHT22;10370;53.102;18.034;2024-03-29T21:01:43;12.90;99.90
20422;DHT22;10370;53.102;18.034;2024-03-29T21:07:23;12.90;99.90
20422;DHT22;10370;53.102;18.034;2024-03-29T21:12:45;12.90;99.90
20422;DHT22;10370;53.102;18.034;2024-03-29T21:18:07;12.80;99.90
20422;DHT22;10370;53.102;18.034;2024-03-29T21:23:29;12.70;99.90
20422;DHT22;10370;53.102;18.034;2024-03-29T21:28:52;12.70;99.90
20422;DHT22;10370;53.102;18.034;2024-03-29T21:34:13;12.60;99.90
20422;DHT22;10370;53.102;18.034;2024-03-29T21:39:35;12.50;99.90
20422;DHT22;10370;53.102;18.034;2024-03-29T21:44:57;12.50;99.90
20422;DHT22;10370;53.102;18.034;2024-03-29T21:50:19;12.50;99.90
20422;DHT22;10370;53.102;18.034;2024-03-29T21:55:40;12.40;99.90
20422;DHT22;10370;53.102;18.034;2024-03-29T22:01:04;12.40;99.90
20422;DHT22;10370;53.102;18.034;2024-03-29T22:06:26;12.40;99.90
20422;DHT22;10370;53.102;18.034;2024-03-29T22:11:47;12.30;99.90
20422;DHT22;10370;53.102;18.034;2024-03-29T22:17:09;12.30;99.90
20422;DHT22;10370;53.102;18.034;2024-03-29T22:22:31;12.30;99.90
20422;DHT22;10370;53.102;18.034;2024-03-29T22:27:52;12.20;99.90
20422;DHT22;10370;53.102;18.034;2024-03-29T22:33:14;12.30;99.90
20422;DHT22;10370;53.102;18.034;2024-03-29T22:38:36;12.30;99.90
20422;DHT22;10370;53.102;18.034;2024-03-29T22:43:57;12.30;99.90
20422;DHT22;10370;53.102;18.034;2024-03-29T22:49:19;12.30;99.90
20422;DHT22;10370;53.102;18.034;2024-03-29T22:54:41;12.20;99.90
20422;DHT22;10370;53.102;18.034;2024-03-29T23:00:03;12.20;99.90
20422;DHT22;10370;53.102;18.034;2024-03-29T23:05:32;12.10;99.90
20422;DHT22;10370;53.102;18.034;2024-03-29T23:10:54;12.10;99.90
20422;DHT22;10370;53.102;18.034;2024-03-29T23:16:15;12.10;99.90
20422;DHT22;10370;53.102;18.034;2024-03-29T23:21:38;12.00;99.90
20422;DHT22;10370;53.102;18.034;2024-03-29T23:26:59;12.00;99.90
20422;DHT22;10370;53.102;18.034;2024-03-29T23:32:21;11.80;99.90
20422;DHT22;10370;53.102;18.034;2024-03-29T23:37:42;11.60;99.90
20422;DHT22;10370;53.102;18.034;2024-03-29T23:43:06;11.60;99.90
20422;DHT22;10370;53.102;18.034;2024-03-29T23:48:30;11.50;99.90
20422;DHT22;10370;53.102;18.034;2024-03-29T23:53:52;11.40;99.90
20422;DHT22;10370;53.102;18.034;2024-03-29T23:59:13;11.30;99.90
